sensor_id;sensor_type;location;lat;lon;timestamp;temperature;humidity
66013;DHT22;52783;50.502;8.190;2022-10-16T00:00:42;14.10;99.90
66013;DHT22;52783;50.502;8.190;2022-10-16T00:03:09;14.10;99.90
66013;DHT22;52783;50.502;8.190;2022-10-16T00:05:40;14.10;99.90
66013;DHT22;52783;50.502;8.190;2022-10-16T00:08:05;14.10;99.90
66013;DHT22;52783;50.502;8.190;2022-10-16T00:10:31;14.10;99.90
66013;DHT22;52783;50.502;8.190;2022-10-16T00:12:57;14.10;99.90
66013;DHT22;52783;50.502;8.190;2022-10-16T00:15:22;14.00;99.90
66013;DHT22;52783;50.502;8.190;2022-10-16T00:17:48;14.10;99.90
66013;DHT22;52783;50.502;8.190;2022-10-16T00:20:13;14.10;99.90
66013;DHT22;52783;50.502;8.190;2022-10-16T00:22:39;14.10;99.90
66013;DHT22;52783;50.502;8.190;2022-10-16T00:25:05;14.10;99.90
66013;DHT22;52783;50.502;8.190;2022-10-16T00:27:31;14.10;99.90
66013;DHT22;52783;50.502;8.190;2022-10-16T00:29:56;14.10;99.90
66013;DHT22;52783;50.502;8.190;2022-10-16T00:32:22;14.10;99.90
66013;DHT22;52783;50.502;8.190;2022-10-16T00:34:47;14.00;99.90
66013;DHT22;52783;50.502;8.190;2022-10-16T00:37:13;14.00;99.90
66013;DHT22;52783;50.502;8.190;2022-10-16T00:39:39;14.00;99.90
66013;DHT22;52783;50.502;8.190;2022-10-16T00:42:04;14.00;99.90
66013;DHT22;52783;50.502;8.190;2022-10-16T00:44:54;14.00;99.90
66013;DHT22;52783;50.502;8.190;2022-10-16T00:47:37;14.00;99.90
66013;DHT22;52783;50.502;8.190;2022-10-16T00:50:16;14.00;99.90
66013;DHT22;52783;50.502;8.190;2022-10-16T00:52:46;13.90;99.90
66013;DHT22;52783;50.502;8.190;2022-10-16T00:55:12;13.90;99.90
66013;DHT22;52783;50.502;8.190;2022-10-16T00:57:38;13.90;99.90
66013;DHT22;52783;50.502;8.190;2022-10-16T01:00:07;13.80;99.90
66013;DHT22;52783;50.502;8.190;2022-10-16T01:02:33;13.90;99.90
66013;DHT22;52783;50.502;8.190;2022-10-16T01:04:59;13.90;99.90
66013;DHT22;52783;50.502;8.190;2022-10-16T01:12:57;13.80;99.90
66013;DHT22;52783;50.502;8.190;2022-10-16T01:15:35;13.90;99.90
66013;DHT22;52783;50.502;8.190;2022-10-16T01:18:08;13.90;99.90
66013;DHT22;52783;50.502;8.190;2022-10-16T01:20:39;13.80;99.90
66013;DHT22;52783;50.502;8.190;2022-10-16T01:26:24;13.80;99.90
66013;DHT22;52783;50.502;8.190;2022-10-16T01:32:10;13.70;99.90
66013;DHT22;52783;50.502;8.190;2022-10-16T01:34:45;13.70;99.90
66013;DHT22;52783;50.502;8.190;2022-10-16T01:37:16;13.80;99.90
66013;DHT22;52783;50.502;8.190;2022-10-16T01:39:46;13.70;99.90
66013;DHT22;52783;50.502;8.190;2022-10-16T01:42:24;13.70;99.90
66013;DHT22;52783;50.502;8.190;2022-10-16T01:44:52;13.70;99.90
66013;DHT22;52783;50.502;8.190;2022-10-16T01:47:22;13.70;99.90
66013;DHT22;52783;50.502;8.190;2022-10-16T01:49:49;13.70;99.90
66013;DHT22;52783;50.502;8.190;2022-10-16T01:52:20;13.70;99.90
66013;DHT22;52783;50.502;8.190;2022-10-16T01:54:47;13.70;99.90
66013;DHT22;52783;50.502;8.190;2022-10-16T01:57:16;13.70;99.90
66013;DHT22;52783;50.502;8.190;2022-10-16T01:59:49;13.80;99.90
66013;DHT22;52783;50.502;8.190;2022-10-16T02:02:18;13.70;99.90
66013;DHT22;52783;50.502;8.190;2022-10-16T02:04:51;13.70;99.90
66013;DHT22;52783;50.502;8.190;2022-10-16T02:07:18;13.70;99.90
66013;DHT22;52783;50.502;8.190;2022-10-16T02:09:44;13.70;99.90
66013;DHT22;52783;50.502;8.190;2022-10-16T02:12:31;13.70;99.90
66013;DHT22;52783;50.502;8.190;2022-10-16T02:14:58;13.70;99.90
66013;DHT22;52783;50.502;8.190;2022-10-16T02:17:24;13.80;99.90
66013;DHT22;52783;50.502;8.190;2022-10-16T02:19:52;13.70;99.90
66013;DHT22;52783;50.502;8.190;2022-10-16T02:22:24;13.70;99.90
66013;DHT22;52783;50.502;8.190;2022-10-16T02:25:35;13.70;99.90
66013;DHT22;52783;50.502;8.190;2022-10-16T02:27:52;13.70;99.90
66013;DHT22;52783;50.502;8.190;2022-10-16T02:32:52;13.80;99.90
66013;DHT22;52783;50.502;8.190;2022-10-16T02:35:20;13.80;99.90
66013;DHT22;52783;50.502;8.190;2022-10-16T02:37:47;13.80;99.90
66013;DHT22;52783;50.502;8.190;2022-10-16T02:40:14;13.80;99.90
66013;DHT22;52783;50.502;8.190;2022-10-16T02:42:40;13.80;99.90
66013;DHT22;52783;50.502;8.190;2022-10-16T02:45:08;13.80;99.90
66013;DHT22;52783;50.502;8.190;2022-10-16T02:47:34;13.80;99.90
66013;DHT22;52783;50.502;8.190;2022-10-16T02:49:59;13.80;99.90
66013;DHT22;52783;50.502;8.190;2022-10-16T02:52:25;13.80;99.90
66013;DHT22;52783;50.502;8.190;2022-10-16T02:54:51;13.80;99.90
66013;DHT22;52783;50.502;8.190;2022-10-16T02:57:17;13.80;99.90
66013;DHT22;52783;50.502;8.190;2022-10-16T02:59:43;13.90;99.90
66013;DHT22;52783;50.502;8.190;2022-10-16T03:02:09;13.80;99.90
66013;DHT22;52783;50.502;8.190;2022-10-16T03:04:34;13.80;99.90
66013;DHT22;52783;50.502;8.190;2022-10-16T03:07:00;13.90;99.90
66013;DHT22;52783;50.502;8.190;2022-10-16T03:09:25;13.70;99.90
66013;DHT22;52783;50.502;8.190;2022-10-16T03:11:51;13.70;99.90
66013;DHT22;52783;50.502;8.190;2022-10-16T03:14:17;13.70;99.90
66013;DHT22;52783;50.502;8.190;2022-10-16T03:16:43;13.80;99.90
66013;DHT22;52783;50.502;8.190;2022-10-16T03:19:08;13.80;99.90
66013;DHT22;52783;50.502;8.190;2022-10-16T03:21:34;13.80;99.90
66013;DHT22;52783;50.502;8.190;2022-10-16T03:23:59;13.70;99.90
66013;DHT22;52783;50.502;8.190;2022-10-16T03:26:25;13.70;99.90
66013;DHT22;52783;50.502;8.190;2022-10-16T03:28:50;13.80;99.90
66013;DHT22;52783;50.502;8.190;2022-10-16T03:31:16;13.80;99.90
66013;DHT22;52783;50.502;8.190;2022-10-16T03:33:41;13.80;99.90
66013;DHT22;52783;50.502;8.190;2022-10-16T03:36:07;13.80;99.90
66013;DHT22;52783;50.502;8.190;2022-10-16T03:38:33;13.70;99.90
66013;DHT22;52783;50.502;8.190;2022-10-16T03:40:58;13.70;99.90
66013;DHT22;52783;50.502;8.190;2022-10-16T03:43:24;13.80;99.90
66013;DHT22;52783;50.502;8.190;2022-10-16T03:45:50;13.90;99.90
66013;DHT22;52783;50.502;8.190;2022-10-16T03:48:17;13.90;99.90
66013;DHT22;52783;50.502;8.190;2022-10-16T03:50:42;13.90;99.90
66013;DHT22;52783;50.502;8.190;2022-10-16T03:53:08;13.90;99.90
66013;DHT22;52783;50.502;8.190;2022-10-16T03:55:34;13.90;99.90
66013;DHT22;52783;50.502;8.190;2022-10-16T03:58:00;13.80;99.90
66013;DHT22;52783;50.502;8.190;2022-10-16T04:00:26;13.80;99.90
66013;DHT22;52783;50.502;8.190;2022-10-16T04:02:51;13.80;99.90
66013;DHT22;52783;50.502;8.190;2022-10-16T04:05:17;13.80;99.90
66013;DHT22;52783;50.502;8.190;2022-10-16T04:07:42;13.70;99.90
66013;DHT22;52783;50.502;8.190;2022-10-16T04:10:08;13.80;99.90
66013;DHT22;52783;50.502;8.190;2022-10-16T04:12:33;13.70;99.90
66013;DHT22;52783;50.502;8.190;2022-10-16T04:14:59;13.70;99.90
66013;DHT22;52783;50.502;8.190;2022-10-16T04:17:24;13.70;99.90
66013;DHT22;52783;50.502;8.190;2022-10-16T04:19:50;13.70;99.90
66013;DHT22;52783;50.502;8.190;2022-10-16T04:22:15;13.70;99.90
66013;DHT22;52783;50.502;8.190;2022-10-16T04:24:41;13.70;99.90
66013;DHT22;52783;50.502;8.190;2022-10-16T04:27:07;13.70;99.90
66013;DHT22;52783;50.502;8.190;2022-10-16T04:29:32;13.70;99.90
66013;DHT22;52783;50.502;8.190;2022-10-16T04:31:58;13.60;99.90
66013;DHT22;52783;50.502;8.190;2022-10-16T04:34:23;13.60;99.90
66013;DHT22;52783;50.502;8.190;2022-10-16T04:36:49;13.70;99.90
66013;DHT22;52783;50.502;8.190;2022-10-16T04:39:15;13.70;99.90
66013;DHT22;52783;50.502;8.190;2022-10-16T04:41:41;13.70;99.90
66013;DHT22;52783;50.502;8.190;2022-10-16T04:44:07;13.60;99.90
66013;DHT22;52783;50.502;8.190;2022-10-16T04:46:32;13.70;99.90
66013;DHT22;52783;50.502;8.190;2022-10-16T04:48:58;13.70;99.90
66013;DHT22;52783;50.502;8.190;2022-10-16T04:51:23;13.70;99.90
66013;DHT22;52783;50.502;8.190;2022-10-16T04:53:51;13.70;99.90
66013;DHT22;52783;50.502;8.190;2022-10-16T04:56:16;13.70;99.90
66013;DHT22;52783;50.502;8.190;2022-10-16T04:58:42;13.70;99.90
66013;DHT22;52783;50.502;8.190;2022-10-16T05:01:07;13.60;99.90
66013;DHT22;52783;50.502;8.190;2022-10-16T05:03:33;13.50;99.90
66013;DHT22;52783;50.502;8.190;2022-10-16T05:05:59;13.50;99.90
66013;DHT22;52783;50.502;8.190;2022-10-16T05:08:24;13.60;99.90
66013;DHT22;52783;50.502;8.190;2022-10-16T05:10:50;13.60;99.90
66013;DHT22;52783;50.502;8.190;2022-10-16T05:13:15;13.60;99.90
66013;DHT22;52783;50.502;8.190;2022-10-16T05:15:41;13.50;99.90
66013;DHT22;52783;50.502;8.190;2022-10-16T05:18:08;13.60;99.90
66013;DHT22;52783;50.502;8.190;2022-10-16T05:20:33;13.70;99.90
66013;DHT22;52783;50.502;8.190;2022-10-16T05:22:59;13.60;99.90
66013;DHT22;52783;50.502;8.190;2022-10-16T05:25:25;13.60;99.90
66013;DHT22;52783;50.502;8.190;2022-10-16T05:27:50;13.60;99.90
66013;DHT22;52783;50.502;8.190;2022-10-16T05:30:17;13.70;99.90
66013;DHT22;52783;50.502;8.190;2022-10-16T05:32:47;13.70;99.90
66013;DHT22;52783;50.502;8.190;2022-10-16T05:35:13;13.60;99.90
66013;DHT22;52783;50.502;8.190;2022-10-16T05:37:38;13.70;99.90
66013;DHT22;52783;50.502;8.190;2022-10-16T05:40:04;13.50;99.90
66013;DHT22;52783;50.502;8.190;2022-10-16T05:42:30;13.60;99.90
66013;DHT22;52783;50.502;8.190;2022-10-16T05:44:56;13.50;99.90
66013;DHT22;52783;50.502;8.190;2022-10-16T05:47:21;13.60;99.90
66013;DHT22;52783;50.502;8.190;2022-10-16T05:49:47;13.50;99.90
66013;DHT22;52783;50.502;8.190;2022-10-16T05:52:13;13.60;99.90
66013;DHT22;52783;50.502;8.190;2022-10-16T05:54:38;13.60;99.90
66013;DHT22;52783;50.502;8.190;2022-10-16T05:57:04;13.70;99.90
66013;DHT22;52783;50.502;8.190;2022-10-16T05:59:31;13.60;99.90
66013;DHT22;52783;50.502;8.190;2022-10-16T06:01:57;13.60;99.90
66013;DHT22;52783;50.502;8.190;2022-10-16T06:04:22;13.50;99.90
66013;DHT22;52783;50.502;8.190;2022-10-16T06:06:48;13.50;99.90
66013;DHT22;52783;50.502;8.190;2022-10-16T06:09:13;13.50;99.90
66013;DHT22;52783;50.502;8.190;2022-10-16T06:11:39;13.50;99.90
66013;DHT22;52783;50.502;8.190;2022-10-16T06:14:04;13.50;99.90
66013;DHT22;52783;50.502;8.190;2022-10-16T06:16:34;13.60;99.90
66013;DHT22;52783;50.502;8.190;2022-10-16T06:18:59;13.50;99.90
66013;DHT22;52783;50.502;8.190;2022-10-16T06:21:26;13.60;99.90
66013;DHT22;52783;50.502;8.190;2022-10-16T06:23:54;13.60;99.90
66013;DHT22;52783;50.502;8.190;2022-10-16T06:26:22;13.50;99.90
66013;DHT22;52783;50.502;8.190;2022-10-16T06:28:48;13.50;99.90
66013;DHT22;52783;50.502;8.190;2022-10-16T06:31:14;13.60;99.90
66013;DHT22;52783;50.502;8.190;2022-10-16T06:33:40;13.70;99.90
66013;DHT22;52783;50.502;8.190;2022-10-16T06:36:14;13.70;99.90
66013;DHT22;52783;50.502;8.190;2022-10-16T06:38:40;13.70;99.90
66013;DHT22;52783;50.502;8.190;2022-10-16T06:41:07;13.80;99.90
66013;DHT22;52783;50.502;8.190;2022-10-16T06:43:33;13.70;99.90
66013;DHT22;52783;50.502;8.190;2022-10-16T06:46:01;13.80;99.90
66013;DHT22;52783;50.502;8.190;2022-10-16T06:48:27;13.90;99.90
66013;DHT22;52783;50.502;8.190;2022-10-16T06:53:27;13.90;99.90
66013;DHT22;52783;50.502;8.190;2022-10-16T06:55:53;13.90;99.90
66013;DHT22;52783;50.502;8.190;2022-10-16T06:58:19;13.90;99.90
66013;DHT22;52783;50.502;8.190;2022-10-16T07:00:44;13.80;99.90
66013;DHT22;52783;50.502;8.190;2022-10-16T07:03:10;13.90;99.90
66013;DHT22;52783;50.502;8.190;2022-10-16T07:05:42;13.80;99.90
66013;DHT22;52783;50.502;8.190;2022-10-16T07:08:08;14.00;99.90
66013;DHT22;52783;50.502;8.190;2022-10-16T07:10:34;14.00;99.90
66013;DHT22;52783;50.502;8.190;2022-10-16T07:13:00;14.10;99.90
66013;DHT22;52783;50.502;8.190;2022-10-16T07:15:26;14.20;99.90
66013;DHT22;52783;50.502;8.190;2022-10-16T07:17:52;14.20;99.90
66013;DHT22;52783;50.502;8.190;2022-10-16T07:20:18;14.20;99.90
66013;DHT22;52783;50.502;8.190;2022-10-16T07:22:43;14.30;99.90
66013;DHT22;52783;50.502;8.190;2022-10-16T07:25:09;14.20;99.90
66013;DHT22;52783;50.502;8.190;2022-10-16T07:27:35;14.20;99.90
66013;DHT22;52783;50.502;8.190;2022-10-16T07:30:00;14.30;99.90
66013;DHT22;52783;50.502;8.190;2022-10-16T07:32:26;14.30;99.90
66013;DHT22;52783;50.502;8.190;2022-10-16T07:34:52;14.30;99.90
66013;DHT22;52783;50.502;8.190;2022-10-16T07:37:18;14.40;99.90
66013;DHT22;52783;50.502;8.190;2022-10-16T07:39:44;14.40;99.90
66013;DHT22;52783;50.502;8.190;2022-10-16T07:42:09;14.40;99.90
66013;DHT22;52783;50.502;8.190;2022-10-16T07:44:35;14.50;99.90
66013;DHT22;52783;50.502;8.190;2022-10-16T07:47:00;14.60;99.90
66013;DHT22;52783;50.502;8.190;2022-10-16T07:49:26;14.60;99.90
66013;DHT22;52783;50.502;8.190;2022-10-16T07:51:51;14.60;99.90
66013;DHT22;52783;50.502;8.190;2022-10-16T07:54:17;14.70;99.90
66013;DHT22;52783;50.502;8.190;2022-10-16T07:56:42;14.80;99.90
66013;DHT22;52783;50.502;8.190;2022-10-16T07:59:08;14.80;99.90
66013;DHT22;52783;50.502;8.190;2022-10-16T08:01:34;14.80;99.90
66013;DHT22;52783;50.502;8.190;2022-10-16T08:03:59;15.00;99.90
66013;DHT22;52783;50.502;8.190;2022-10-16T08:06:25;15.10;99.90
66013;DHT22;52783;50.502;8.190;2022-10-16T08:08:50;15.20;99.90
66013;DHT22;52783;50.502;8.190;2022-10-16T08:11:16;15.20;99.90
66013;DHT22;52783;50.502;8.190;2022-10-16T08:13:42;15.30;99.90
66013;DHT22;52783;50.502;8.190;2022-10-16T08:16:08;15.30;99.90
66013;DHT22;52783;50.502;8.190;2022-10-16T08:18:35;15.30;99.90
66013;DHT22;52783;50.502;8.190;2022-10-16T08:21:01;15.40;99.90
66013;DHT22;52783;50.502;8.190;2022-10-16T08:23:28;15.40;99.90
66013;DHT22;52783;50.502;8.190;2022-10-16T08:25:55;15.50;99.90
66013;DHT22;52783;50.502;8.190;2022-10-16T08:28:21;15.50;99.90
66013;DHT22;52783;50.502;8.190;2022-10-16T08:30:47;15.60;99.90
66013;DHT22;52783;50.502;8.190;2022-10-16T08:33:13;15.60;99.90
66013;DHT22;52783;50.502;8.190;2022-10-16T08:35:38;15.70;99.90
66013;DHT22;52783;50.502;8.190;2022-10-16T08:38:05;15.70;99.90
66013;DHT22;52783;50.502;8.190;2022-10-16T08:40:32;15.90;99.90
66013;DHT22;52783;50.502;8.190;2022-10-16T08:45:42;15.90;99.90
66013;DHT22;52783;50.502;8.190;2022-10-16T08:50:43;16.00;99.90
66013;DHT22;52783;50.502;8.190;2022-10-16T08:53:17;16.10;99.90
66013;DHT22;52783;50.502;8.190;2022-10-16T08:55:51;16.30;99.90
66013;DHT22;52783;50.502;8.190;2022-10-16T08:58:20;16.40;99.90
66013;DHT22;52783;50.502;8.190;2022-10-16T09:00:59;16.50;99.90
66013;DHT22;52783;50.502;8.190;2022-10-16T09:06:47;16.80;99.90
66013;DHT22;52783;50.502;8.190;2022-10-16T09:13:13;17.00;99.90
66013;DHT22;52783;50.502;8.190;2022-10-16T09:15:13;17.10;99.90
66013;DHT22;52783;50.502;8.190;2022-10-16T09:17:59;17.00;99.90
66013;DHT22;52783;50.502;8.190;2022-10-16T09:23:13;17.10;99.90
66013;DHT22;52783;50.502;8.190;2022-10-16T09:25:42;16.90;99.90
66013;DHT22;52783;50.502;8.190;2022-10-16T09:28:08;17.10;99.90
66013;DHT22;52783;50.502;8.190;2022-10-16T09:30:35;17.00;99.90
66013;DHT22;52783;50.502;8.190;2022-10-16T09:33:01;16.90;99.90
66013;DHT22;52783;50.502;8.190;2022-10-16T09:35:39;16.90;99.90
66013;DHT22;52783;50.502;8.190;2022-10-16T09:38:05;17.10;99.90
66013;DHT22;52783;50.502;8.190;2022-10-16T09:40:34;17.10;99.90
66013;DHT22;52783;50.502;8.190;2022-10-16T09:45:35;17.30;99.90
66013;DHT22;52783;50.502;8.190;2022-10-16T09:48:10;17.40;99.90
66013;DHT22;52783;50.502;8.190;2022-10-16T09:50:36;17.40;99.90
66013;DHT22;52783;50.502;8.190;2022-10-16T09:53:08;17.60;99.90
66013;DHT22;52783;50.502;8.190;2022-10-16T09:55:35;17.70;99.90
66013;DHT22;52783;50.502;8.190;2022-10-16T09:58:01;17.80;99.90
66013;DHT22;52783;50.502;8.190;2022-10-16T10:00:27;18.00;99.90
66013;DHT22;52783;50.502;8.190;2022-10-16T10:02:53;17.80;99.90
66013;DHT22;52783;50.502;8.190;2022-10-16T10:05:25;17.90;99.90
66013;DHT22;52783;50.502;8.190;2022-10-16T10:07:57;17.80;99.90
66013;DHT22;52783;50.502;8.190;2022-10-16T10:10:24;17.90;99.90
66013;DHT22;52783;50.502;8.190;2022-10-16T10:12:51;18.00;99.90
66013;DHT22;52783;50.502;8.190;2022-10-16T10:15:17;18.00;99.90
66013;DHT22;52783;50.502;8.190;2022-10-16T10:17:51;18.00;99.90
66013;DHT22;52783;50.502;8.190;2022-10-16T10:22:52;18.20;99.90
66013;DHT22;52783;50.502;8.190;2022-10-16T10:36:39;18.00;99.90
66013;DHT22;52783;50.502;8.190;2022-10-16T10:39:09;18.20;99.90
66013;DHT22;52783;50.502;8.190;2022-10-16T10:41:52;18.50;99.90
66013;DHT22;52783;50.502;8.190;2022-10-16T10:44:50;18.40;99.90
66013;DHT22;52783;50.502;8.190;2022-10-16T10:47:33;18.50;99.90
66013;DHT22;52783;50.502;8.190;2022-10-16T10:50:32;18.70;99.90
66013;DHT22;52783;50.502;8.190;2022-10-16T10:53:10;18.40;99.90
66013;DHT22;52783;50.502;8.190;2022-10-16T10:55:45;18.20;99.90
66013;DHT22;52783;50.502;8.190;2022-10-16T11:01:02;18.00;99.90
66013;DHT22;52783;50.502;8.190;2022-10-16T11:04:03;17.90;99.90
66013;DHT22;52783;50.502;8.190;2022-10-16T11:06:39;18.10;99.90
66013;DHT22;52783;50.502;8.190;2022-10-16T11:12:00;18.30;99.90
66013;DHT22;52783;50.502;8.190;2022-10-16T11:14:30;18.50;99.90
66013;DHT22;52783;50.502;8.190;2022-10-16T11:17:34;18.50;99.90
66013;DHT22;52783;50.502;8.190;2022-10-16T11:20:14;18.60;99.10
66013;DHT22;52783;50.502;8.190;2022-10-16T11:22:46;18.80;99.10
66013;DHT22;52783;50.502;8.190;2022-10-16T11:25:32;18.20;99.90
66013;DHT22;52783;50.502;8.190;2022-10-16T11:35:47;18.20;99.90
66013;DHT22;52783;50.502;8.190;2022-10-16T11:38:47;18.40;99.90
66013;DHT22;52783;50.502;8.190;2022-10-16T11:41:23;18.40;99.40
66013;DHT22;52783;50.502;8.190;2022-10-16T11:46:48;18.40;99.90
66013;DHT22;52783;50.502;8.190;2022-10-16T11:49:19;18.50;99.90
66013;DHT22;52783;50.502;8.190;2022-10-16T11:52:01;18.40;99.90
66013;DHT22;52783;50.502;8.190;2022-10-16T11:54:57;18.40;99.60
66013;DHT22;52783;50.502;8.190;2022-10-16T11:57:28;18.50;99.90
66013;DHT22;52783;50.502;8.190;2022-10-16T12:00:21;18.60;99.90
66013;DHT22;52783;50.502;8.190;2022-10-16T12:08:45;18.50;99.90
66013;DHT22;52783;50.502;8.190;2022-10-16T12:11:23;18.40;99.90
66013;DHT22;52783;50.502;8.190;2022-10-16T12:13:49;18.40;99.90
66013;DHT22;52783;50.502;8.190;2022-10-16T12:18:42;18.40;99.90
66013;DHT22;52783;50.502;8.190;2022-10-16T12:21:08;18.50;99.90
66013;DHT22;52783;50.502;8.190;2022-10-16T12:23:46;19.00;99.90
66013;DHT22;52783;50.502;8.190;2022-10-16T12:26:12;19.30;99.00
66013;DHT22;52783;50.502;8.190;2022-10-16T12:28:38;19.20;97.70
66013;DHT22;52783;50.502;8.190;2022-10-16T12:31:09;19.30;96.70
66013;DHT22;52783;50.502;8.190;2022-10-16T12:33:52;19.00;97.70
66013;DHT22;52783;50.502;8.190;2022-10-16T12:36:32;19.20;97.70
66013;DHT22;52783;50.502;8.190;2022-10-16T12:38:59;19.20;97.90
66013;DHT22;52783;50.502;8.190;2022-10-16T12:41:30;19.30;97.70
66013;DHT22;52783;50.502;8.190;2022-10-16T12:43:57;19.10;96.90
66013;DHT22;52783;50.502;8.190;2022-10-16T12:51:40;19.20;97.40
66013;DHT22;52783;50.502;8.190;2022-10-16T12:57:13;19.50;97.50
66013;DHT22;52783;50.502;8.190;2022-10-16T13:00:04;19.40;96.40
66013;DHT22;52783;50.502;8.190;2022-10-16T13:02:39;19.60;97.20
66013;DHT22;52783;50.502;8.190;2022-10-16T13:05:24;19.70;96.50
66013;DHT22;52783;50.502;8.190;2022-10-16T13:11:15;19.40;95.40
66013;DHT22;52783;50.502;8.190;2022-10-16T13:14:04;19.60;96.90
66013;DHT22;52783;50.502;8.190;2022-10-16T13:22:29;19.50;97.20
66013;DHT22;52783;50.502;8.190;2022-10-16T13:25:13;19.40;97.50
66013;DHT22;52783;50.502;8.190;2022-10-16T13:28:08;19.30;97.20
66013;DHT22;52783;50.502;8.190;2022-10-16T13:30:41;19.40;98.20
66013;DHT22;52783;50.502;8.190;2022-10-16T13:35:47;19.40;98.30
66013;DHT22;52783;50.502;8.190;2022-10-16T13:38:18;19.30;97.90
66013;DHT22;52783;50.502;8.190;2022-10-16T13:41:15;19.10;98.30
66013;DHT22;52783;50.502;8.190;2022-10-16T13:43:51;19.40;98.10
66013;DHT22;52783;50.502;8.190;2022-10-16T13:46:20;19.30;98.30
66013;DHT22;52783;50.502;8.190;2022-10-16T13:49:00;19.20;98.00
66013;DHT22;52783;50.502;8.190;2022-10-16T13:51:27;19.40;98.00
66013;DHT22;52783;50.502;8.190;2022-10-16T13:53:55;19.50;97.60
66013;DHT22;52783;50.502;8.190;2022-10-16T13:56:22;19.60;97.50
66013;DHT22;52783;50.502;8.190;2022-10-16T13:59:07;19.60;97.10
66013;DHT22;52783;50.502;8.190;2022-10-16T14:01:48;19.40;97.30
66013;DHT22;52783;50.502;8.190;2022-10-16T14:04:14;19.40;97.50
66013;DHT22;52783;50.502;8.190;2022-10-16T14:06:43;19.10;97.10
66013;DHT22;52783;50.502;8.190;2022-10-16T14:09:28;19.20;98.10
66013;DHT22;52783;50.502;8.190;2022-10-16T14:12:00;19.10;97.90
66013;DHT22;52783;50.502;8.190;2022-10-16T14:14:26;18.90;97.50
66013;DHT22;52783;50.502;8.190;2022-10-16T14:16:54;18.90;98.50
66013;DHT22;52783;50.502;8.190;2022-10-16T14:19:22;19.00;99.20
66013;DHT22;52783;50.502;8.190;2022-10-16T14:21:50;19.10;98.80
66013;DHT22;52783;50.502;8.190;2022-10-16T14:24:35;19.20;99.00
66013;DHT22;52783;50.502;8.190;2022-10-16T14:27:01;19.00;99.00
66013;DHT22;52783;50.502;8.190;2022-10-16T14:29:28;18.80;99.60
66013;DHT22;52783;50.502;8.190;2022-10-16T14:34:35;18.70;99.90
66013;DHT22;52783;50.502;8.190;2022-10-16T14:37:22;18.80;99.90
66013;DHT22;52783;50.502;8.190;2022-10-16T14:39:52;18.90;99.90
66013;DHT22;52783;50.502;8.190;2022-10-16T14:42:19;18.90;99.90
66013;DHT22;52783;50.502;8.190;2022-10-16T14:44:47;19.00;99.90
66013;DHT22;52783;50.502;8.190;2022-10-16T14:47:16;19.00;99.90
66013;DHT22;52783;50.502;8.190;2022-10-16T14:49:47;19.10;99.90
66013;DHT22;52783;50.502;8.190;2022-10-16T14:52:13;19.20;99.90
66013;DHT22;52783;50.502;8.190;2022-10-16T14:54:40;19.20;99.90
66013;DHT22;52783;50.502;8.190;2022-10-16T14:57:05;19.10;99.80
66013;DHT22;52783;50.502;8.190;2022-10-16T14:59:42;18.90;99.80
66013;DHT22;52783;50.502;8.190;2022-10-16T15:02:31;19.10;99.90
66013;DHT22;52783;50.502;8.190;2022-10-16T15:04:59;19.00;99.90
66013;DHT22;52783;50.502;8.190;2022-10-16T15:07:30;19.10;99.90
66013;DHT22;52783;50.502;8.190;2022-10-16T15:09:56;19.00;99.90
66013;DHT22;52783;50.502;8.190;2022-10-16T15:12:22;19.10;99.90
66013;DHT22;52783;50.502;8.190;2022-10-16T15:14:47;19.10;99.90
66013;DHT22;52783;50.502;8.190;2022-10-16T15:17:13;19.00;99.90
66013;DHT22;52783;50.502;8.190;2022-10-16T15:19:38;18.90;99.90
66013;DHT22;52783;50.502;8.190;2022-10-16T15:22:04;18.90;99.90
66013;DHT22;52783;50.502;8.190;2022-10-16T15:24:29;18.80;99.90
66013;DHT22;52783;50.502;8.190;2022-10-16T15:26:55;18.80;99.90
66013;DHT22;52783;50.502;8.190;2022-10-16T15:29:20;18.90;99.90
66013;DHT22;52783;50.502;8.190;2022-10-16T15:31:46;18.90;99.90
66013;DHT22;52783;50.502;8.190;2022-10-16T15:34:13;18.90;99.90
66013;DHT22;52783;50.502;8.190;2022-10-16T15:36:39;18.80;99.90
66013;DHT22;52783;50.502;8.190;2022-10-16T15:39:16;18.80;99.90
66013;DHT22;52783;50.502;8.190;2022-10-16T15:41:44;18.90;99.90
66013;DHT22;52783;50.502;8.190;2022-10-16T15:44:09;18.80;99.90
66013;DHT22;52783;50.502;8.190;2022-10-16T15:46:35;18.80;99.90
66013;DHT22;52783;50.502;8.190;2022-10-16T15:49:02;18.80;99.90
66013;DHT22;52783;50.502;8.190;2022-10-16T15:51:28;18.70;99.90
66013;DHT22;52783;50.502;8.190;2022-10-16T15:53:56;18.70;99.90
66013;DHT22;52783;50.502;8.190;2022-10-16T15:56:22;18.70;99.90
66013;DHT22;52783;50.502;8.190;2022-10-16T15:58:49;18.60;99.90
66013;DHT22;52783;50.502;8.190;2022-10-16T16:01:15;18.50;99.90
66013;DHT22;52783;50.502;8.190;2022-10-16T16:03:41;18.50;99.90
66013;DHT22;52783;50.502;8.190;2022-10-16T16:06:09;18.40;99.90
66013;DHT22;52783;50.502;8.190;2022-10-16T16:08:35;18.30;99.90
66013;DHT22;52783;50.502;8.190;2022-10-16T16:11:06;18.20;99.90
66013;DHT22;52783;50.502;8.190;2022-10-16T16:13:32;18.20;99.90
66013;DHT22;52783;50.502;8.190;2022-10-16T16:15:59;18.10;99.90
66013;DHT22;52783;50.502;8.190;2022-10-16T16:18:24;18.10;99.90
66013;DHT22;52783;50.502;8.190;2022-10-16T16:20:51;18.00;99.90
66013;DHT22;52783;50.502;8.190;2022-10-16T16:23:17;18.00;99.90
66013;DHT22;52783;50.502;8.190;2022-10-16T16:25:42;17.90;99.90
66013;DHT22;52783;50.502;8.190;2022-10-16T16:28:08;17.80;99.90
66013;DHT22;52783;50.502;8.190;2022-10-16T16:30:36;17.80;99.90
66013;DHT22;52783;50.502;8.190;2022-10-16T16:33:01;17.80;99.90
66013;DHT22;52783;50.502;8.190;2022-10-16T16:35:27;17.80;99.90
66013;DHT22;52783;50.502;8.190;2022-10-16T16:37:52;17.80;99.90
66013;DHT22;52783;50.502;8.190;2022-10-16T16:40:18;17.80;99.90
66013;DHT22;52783;50.502;8.190;2022-10-16T16:42:43;17.80;99.90
66013;DHT22;52783;50.502;8.190;2022-10-16T16:45:09;17.80;99.90
66013;DHT22;52783;50.502;8.190;2022-10-16T16:47:35;17.80;99.90
66013;DHT22;52783;50.502;8.190;2022-10-16T16:50:00;17.70;99.90
66013;DHT22;52783;50.502;8.190;2022-10-16T16:52:30;17.70;99.90
66013;DHT22;52783;50.502;8.190;2022-10-16T16:54:55;17.70;99.90
66013;DHT22;52783;50.502;8.190;2022-10-16T16:57:21;17.60;99.90
66013;DHT22;52783;50.502;8.190;2022-10-16T16:59:47;17.60;99.90
66013;DHT22;52783;50.502;8.190;2022-10-16T17:02:15;17.60;99.90
66013;DHT22;52783;50.502;8.190;2022-10-16T17:04:40;17.50;99.90
66013;DHT22;52783;50.502;8.190;2022-10-16T17:07:06;17.60;99.90
66013;DHT22;52783;50.502;8.190;2022-10-16T17:09:32;17.50;99.90
66013;DHT22;52783;50.502;8.190;2022-10-16T17:11:58;17.50;99.90
66013;DHT22;52783;50.502;8.190;2022-10-16T17:14:23;17.50;99.90
66013;DHT22;52783;50.502;8.190;2022-10-16T17:16:49;17.50;99.90